createdAt,value
2017-12-16T00:00:35.972Z,99520.24
2017-12-16T00:03:03.031Z,99524.28
2017-12-16T00:05:30.687Z,99535.23
2017-12-16T00:07:57.552Z,99538.54
2017-12-16T00:10:24.377Z,99539.86
2017-12-16T00:12:51.309Z,99538.84
2017-12-16T00:15:18.185Z,99541.23
2017-12-16T00:17:45.069Z,99548.27
2017-12-16T00:20:11.890Z,99546.13
2017-12-16T00:22:51.383Z,99550.84
2017-12-16T00:25:18.439Z,99559.02
2017-12-16T00:27:45.275Z,99554.09
2017-12-16T00:30:18.476Z,99554.87
2017-12-16T00:32:45.366Z,99565.79
2017-12-16T00:35:12.283Z,99561.14
2017-12-16T00:37:39.988Z,99559.14
2017-12-16T00:40:06.867Z,99561.30
2017-12-16T00:42:33.728Z,99566.37
2017-12-16T00:45:00.630Z,99569.42
2017-12-16T00:47:27.518Z,99573.66
2017-12-16T00:49:55.196Z,99567.87
2017-12-16T00:52:22.850Z,99569.20
2017-12-16T00:54:49.690Z,99563.69
2017-12-16T00:57:16.629Z,99563.47
2017-12-16T01:00:00.304Z,99566.08
2017-12-16T01:02:27.200Z,99571.45
2017-12-16T01:04:54.047Z,99569.25
2017-12-16T01:07:20.912Z,99575.73
2017-12-16T01:09:49.940Z,99581.82
2017-12-16T01:12:19.596Z,99587.65
2017-12-16T01:14:49.046Z,99593.09
2017-12-16T01:17:18.030Z,99600.91
2017-12-16T01:19:45.709Z,99599.97
2017-12-16T01:22:12.662Z,99606.00
2017-12-16T01:24:39.573Z,99610.05
2017-12-16T01:27:06.419Z,99613.45
2017-12-16T01:29:34.005Z,99616.70
2017-12-16T01:32:01.567Z,99617.11
2017-12-16T01:34:46.670Z,99620.87
2017-12-16T01:37:31.763Z,99629.87
2017-12-16T01:39:58.641Z,99624.86
2017-12-16T01:42:26.272Z,99629.78
2017-12-16T01:44:53.156Z,99629.51
2017-12-16T01:47:20.799Z,99629.73
2017-12-16T01:49:47.719Z,99639.08
2017-12-16T01:52:15.390Z,99641.77
2017-12-16T01:54:42.505Z,99643.91
2017-12-16T01:57:09.542Z,99647.27
2017-12-16T01:59:37.197Z,99646.66
2017-12-16T02:02:05.534Z,99651.17
2017-12-16T02:04:32.478Z,99655.36
2017-12-16T02:06:59.513Z,99657.45
2017-12-16T02:09:26.433Z,99661.82
2017-12-16T02:11:53.395Z,99667.09
2017-12-16T02:14:20.314Z,99666.19
2017-12-16T02:16:47.187Z,99668.58
2017-12-16T02:19:14.247Z,99672.41
2017-12-16T02:21:41.253Z,99674.17
2017-12-16T02:24:08.217Z,99677.13
2017-12-16T02:26:35.112Z,99675.12
2017-12-16T02:29:02.170Z,99674.38
2017-12-16T02:31:29.158Z,99675.36
2017-12-16T02:33:57.215Z,99676.16
2017-12-16T02:36:45.780Z,99675.08
2017-12-16T02:39:12.768Z,99678.53
2017-12-16T02:44:52.532Z,99681.91
2017-12-16T02:47:25.861Z,99685.11
2017-12-16T02:50:19.735Z,99692.06
2017-12-16T02:55:47.842Z,99690.77
2017-12-16T02:58:16.846Z,99698.81
2017-12-16T03:03:34.343Z,99707.51
2017-12-16T03:06:01.376Z,99710.48
2017-12-16T03:19:08.015Z,99729.84
2017-12-16T03:21:41.019Z,99728.89
2017-12-16T03:27:23.717Z,99733.27
2017-12-16T03:29:56.854Z,99730.48
2017-12-16T03:32:31.482Z,99727.95
2017-12-16T03:35:00.579Z,99732.96
2017-12-16T03:37:30.159Z,99733.32
2017-12-16T03:40:00.537Z,99737.38
2017-12-16T03:42:30.618Z,99736.14
2017-12-16T03:44:59.291Z,99732.61
2017-12-16T03:47:28.464Z,99736.31
2017-12-16T03:49:55.447Z,99741.50
2017-12-16T03:52:24.576Z,99745.38
2017-12-16T03:54:51.901Z,99745.71
2017-12-16T03:57:19.711Z,99746.72
2017-12-16T03:59:51.926Z,99754.12
2017-12-16T04:02:18.889Z,99765.74
2017-12-16T04:04:45.873Z,99766.28
2017-12-16T04:07:12.832Z,99766.02
2017-12-16T04:09:39.882Z,99767.75
2017-12-16T04:12:06.896Z,99768.75
2017-12-16T04:14:38.583Z,99771.25
2017-12-16T04:17:05.597Z,99774.06
2017-12-16T04:19:32.646Z,99773.20
2017-12-16T04:21:59.663Z,99766.26
2017-12-16T04:24:26.724Z,99775.59
2017-12-16T04:26:57.501Z,99775.30
2017-12-16T04:29:29.538Z,99774.52
2017-12-16T04:31:57.422Z,99780.82
2017-12-16T04:34:24.535Z,99777.41
2017-12-16T04:36:51.631Z,99774.20
2017-12-16T04:39:18.722Z,99774.59
2017-12-16T04:41:49.714Z,99786.56
2017-12-16T04:44:23.805Z,99778.88
2017-12-16T04:46:51.610Z,99784.00
2017-12-16T04:49:19.433Z,99782.64
2017-12-16T04:51:46.512Z,99781.98
2017-12-16T04:54:20.594Z,99780.24
2017-12-16T04:56:52.170Z,99789.36
2017-12-16T04:59:19.239Z,99792.99
2017-12-16T05:02:06.200Z,99796.98
2017-12-16T05:04:33.354Z,99798.23
2017-12-16T05:07:00.637Z,99804.10
2017-12-16T05:09:27.846Z,99803.81
2017-12-16T05:11:55.105Z,99810.05
2017-12-16T05:14:22.157Z,99809.53
2017-12-16T05:17:18.563Z,99815.87
2017-12-16T05:19:45.758Z,99818.54
2017-12-16T05:22:12.912Z,99821.81
2017-12-16T05:24:40.049Z,99824.98
2017-12-16T05:27:08.908Z,99826.00
2017-12-16T05:29:36.302Z,99826.23
2017-12-16T05:32:27.276Z,99827.53
2017-12-16T05:34:54.916Z,99832.70
2017-12-16T05:54:57.763Z,99850.39
2017-12-16T06:06:19.035Z,99863.23
2017-12-16T06:08:48.365Z,99859.91
2017-12-16T06:11:18.657Z,99863.45
2017-12-16T06:13:46.634Z,99866.58
2017-12-16T06:16:13.945Z,99873.27
2017-12-16T06:18:41.122Z,99880.00
2017-12-16T06:21:08.287Z,99879.64
2017-12-16T06:23:35.310Z,99888.34
2017-12-16T06:26:02.295Z,99894.61
2017-12-16T06:28:29.343Z,99896.84
2017-12-16T06:30:56.276Z,99894.28
2017-12-16T06:33:23.251Z,99892.10
2017-12-16T06:35:50.199Z,99894.10
2017-12-16T06:38:17.197Z,99893.23
2017-12-16T06:40:44.110Z,99893.86
2017-12-16T06:43:11.033Z,99898.08
2017-12-16T06:45:37.973Z,99906.03
2017-12-16T06:48:04.920Z,99911.07
2017-12-16T06:50:33.204Z,99910.31
2017-12-16T06:53:00.109Z,99915.23
2017-12-16T06:55:27.152Z,99923.39
2017-12-16T06:57:54.098Z,99917.48
2017-12-16T07:00:21.010Z,99923.41
2017-12-16T07:02:48.994Z,99928.88
2017-12-16T07:05:15.890Z,99929.97
2017-12-16T07:07:43.540Z,99934.02
2017-12-16T07:10:10.472Z,99938.89
2017-12-16T07:12:37.395Z,99942.21
2017-12-16T07:15:04.309Z,99939.80
2017-12-16T07:17:31.267Z,99953.42
2017-12-16T07:19:58.205Z,99962.50
2017-12-16T07:22:25.105Z,99957.20
2017-12-16T07:24:52.113Z,99962.30
2017-12-16T07:27:19.843Z,99965.81
2017-12-16T07:29:46.800Z,99971.65
2017-12-16T07:32:13.678Z,99977.97
2017-12-16T07:34:40.540Z,99985.27
2017-12-16T07:37:07.371Z,99990.92
2017-12-16T07:39:34.199Z,99997.73
2017-12-16T07:42:01.951Z,99992.45
2017-12-16T07:44:30.383Z,100004.51
2017-12-16T07:46:57.995Z,100016.46
2017-12-16T07:49:24.913Z,100013.48
2017-12-16T07:51:52.487Z,100019.30
2017-12-16T07:54:19.329Z,100020.88
2017-12-16T07:56:46.215Z,100032.00
2017-12-16T07:59:13.969Z,100026.30
2017-12-16T08:01:41.025Z,100024.81
2017-12-16T08:04:07.967Z,100034.36
2017-12-16T08:06:34.827Z,100040.90
2017-12-16T08:09:11.322Z,100039.82
2017-12-16T08:12:00.677Z,100050.08
2017-12-16T08:14:31.315Z,100046.61
2017-12-16T08:16:58.203Z,100054.76
2017-12-16T08:19:25.062Z,100058.83
2017-12-16T08:21:51.962Z,100057.69
2017-12-16T08:24:18.885Z,100063.02
2017-12-16T08:26:45.777Z,100063.45
2017-12-16T08:29:12.651Z,100067.36
2017-12-16T08:31:40.475Z,100072.70
2017-12-16T08:34:07.429Z,100075.77
2017-12-16T08:36:35.057Z,100084.09
2017-12-16T08:39:02.066Z,100090.12
2017-12-16T08:41:29.649Z,100092.73
2017-12-16T08:43:56.536Z,100097.20
2017-12-16T08:46:23.441Z,100102.05
2017-12-16T08:48:52.293Z,100106.52
2017-12-16T08:51:20.068Z,100105.09
2017-12-16T08:53:46.902Z,100116.61
2017-12-16T08:56:13.827Z,100114.67
2017-12-16T08:58:40.669Z,100116.11
2017-12-16T09:01:09.402Z,100126.81
2017-12-16T09:03:36.370Z,100123.75
2017-12-16T09:06:03.299Z,100131.51
2017-12-16T09:08:30.198Z,100133.75
2017-12-16T09:10:57.191Z,100142.02
2017-12-16T09:13:35.305Z,100139.95
2017-12-16T09:16:03.029Z,100145.41
2017-12-16T09:18:29.926Z,100148.92
2017-12-16T09:20:56.794Z,100148.58
2017-12-16T09:23:23.706Z,100154.66
2017-12-16T09:25:51.340Z,100154.61
2017-12-16T09:28:18.559Z,100162.83
2017-12-16T09:30:45.513Z,100164.62
2017-12-16T09:33:12.372Z,100169.84
2017-12-16T09:35:39.193Z,100171.83
2017-12-16T09:38:06.056Z,100179.69
2017-12-16T09:40:32.960Z,100177.00
2017-12-16T09:42:59.807Z,100181.67
2017-12-16T09:45:27.393Z,100192.19
2017-12-16T09:47:55.067Z,100191.30
2017-12-16T09:50:22.658Z,100198.09
2017-12-16T09:52:49.519Z,100195.84
2017-12-16T09:55:16.353Z,100196.02
2017-12-16T09:57:43.187Z,100197.70
2017-12-16T10:00:10.028Z,100204.05
2017-12-16T10:02:37.106Z,100204.46
2017-12-16T10:05:03.943Z,100204.77
2017-12-16T10:07:30.823Z,100215.42
2017-12-16T10:09:57.698Z,100212.63
2017-12-16T10:12:24.531Z,100205.70
2017-12-16T10:14:51.461Z,100203.48
2017-12-16T10:17:19.052Z,100209.30
2017-12-16T10:19:45.947Z,100204.78
2017-12-16T10:22:12.825Z,100205.69
2017-12-16T10:24:39.704Z,100207.55
2017-12-16T10:27:06.552Z,100209.91
2017-12-16T10:29:33.426Z,100205.86
2017-12-16T10:32:00.310Z,100209.23
2017-12-16T10:34:27.924Z,100218.83
2017-12-16T10:36:54.797Z,100217.79
2017-12-16T10:39:21.697Z,100224.45
2017-12-16T10:41:48.529Z,100224.75
2017-12-16T10:44:15.407Z,100232.47
2017-12-16T10:46:42.267Z,100237.96
2017-12-16T10:49:09.120Z,100224.83
2017-12-16T10:51:36.217Z,100232.97
2017-12-16T10:54:03.501Z,100229.28
2017-12-16T10:56:31.141Z,100236.69
2017-12-16T10:58:58.034Z,100237.92
2017-12-16T11:01:25.674Z,100233.02
2017-12-16T11:03:52.511Z,100234.61
2017-12-16T11:06:19.355Z,100235.59
2017-12-16T11:08:46.193Z,100241.77
2017-12-16T11:11:13.812Z,100235.16
2017-12-16T11:13:41.500Z,100238.45
2017-12-16T11:16:09.145Z,100240.66
2017-12-16T11:18:36.737Z,100246.96
2017-12-16T11:21:03.622Z,100244.34
2017-12-16T11:23:30.475Z,100246.41
2017-12-16T11:25:57.334Z,100245.83
2017-12-16T11:28:24.180Z,100249.91
2017-12-16T11:30:51.119Z,100246.70
2017-12-16T11:33:18.720Z,100251.03
2017-12-16T11:35:45.551Z,100257.36
2017-12-16T11:38:12.372Z,100263.01
2017-12-16T11:40:39.225Z,100263.10
2017-12-16T11:43:06.042Z,100258.87
2017-12-16T11:45:33.681Z,100260.11
2017-12-16T11:48:01.729Z,100260.72
2017-12-16T11:50:28.543Z,100265.29
2017-12-16T11:52:55.319Z,100263.89
2017-12-16T11:55:22.126Z,100267.04
2017-12-16T11:57:48.937Z,100266.52
2017-12-16T12:00:15.782Z,100266.12
2017-12-16T12:02:42.552Z,100272.89
2017-12-16T12:05:09.396Z,100275.13
2017-12-16T12:07:36.191Z,100273.09
2017-12-16T12:10:03.754Z,100274.54
2017-12-16T12:12:30.602Z,100271.05
2017-12-16T12:14:57.457Z,100265.55
2017-12-16T12:17:24.290Z,100273.55
2017-12-16T12:19:51.173Z,100277.53
2017-12-16T12:22:18.697Z,100276.65
2017-12-16T12:24:46.307Z,100274.03
2017-12-16T12:27:13.157Z,100274.05
2017-12-16T12:29:39.976Z,100283.78
2017-12-16T12:32:06.841Z,100280.60
2017-12-16T12:34:33.725Z,100284.66
2017-12-16T12:37:01.329Z,100287.64
2017-12-16T12:39:28.176Z,100288.51
2017-12-16T12:41:54.990Z,100286.34
2017-12-16T12:44:21.829Z,100284.67
2017-12-16T12:46:48.654Z,100290.63
2017-12-16T12:49:15.481Z,100283.45
2017-12-16T12:51:42.444Z,100282.19
2017-12-16T12:54:09.336Z,100287.87
2017-12-16T12:56:36.871Z,100289.84
2017-12-16T12:59:03.727Z,100284.22
2017-12-16T13:01:30.584Z,100287.08
2017-12-16T13:03:57.462Z,100290.66
2017-12-16T13:06:24.279Z,100292.62
2017-12-16T13:08:51.341Z,100291.81
2017-12-16T13:11:18.246Z,100294.08
2017-12-16T13:13:45.114Z,100293.41
2017-12-16T13:16:11.944Z,100293.22
2017-12-16T13:18:38.771Z,100290.64
2017-12-16T13:21:05.641Z,100297.94
2017-12-16T13:23:32.458Z,100296.72
2017-12-16T13:25:59.332Z,100291.91
2017-12-16T13:28:26.166Z,100303.31
2017-12-16T13:30:52.966Z,100304.17
2017-12-16T13:33:20.545Z,100309.19
2017-12-16T13:35:48.189Z,100310.50
2017-12-16T13:38:15.039Z,100316.26
2017-12-16T13:40:41.858Z,100317.33
2017-12-16T13:43:09.498Z,100324.18
2017-12-16T13:45:36.384Z,100326.38
2017-12-16T13:48:04.004Z,100325.00
2017-12-16T13:50:30.843Z,100327.24
2017-12-16T13:52:57.679Z,100334.78
2017-12-16T13:55:24.546Z,100327.00
2017-12-16T13:57:51.379Z,100335.80
2017-12-16T14:00:18.271Z,100334.48
2017-12-16T14:02:45.172Z,100332.70
2017-12-16T14:05:12.047Z,100340.66
2017-12-16T14:07:38.949Z,100340.98
2017-12-16T14:10:05.739Z,100345.84
2017-12-16T14:12:32.608Z,100341.85
2017-12-16T14:15:00.149Z,100348.53
2017-12-16T14:17:27.717Z,100352.09
2017-12-16T14:19:54.573Z,100351.03
2017-12-16T14:22:21.457Z,100353.33
2017-12-16T14:24:49.017Z,100360.69
2017-12-16T14:27:15.824Z,100366.42
2017-12-16T14:29:42.676Z,100364.98
2017-12-16T14:32:09.400Z,100363.96
2017-12-16T14:34:36.922Z,100369.80
2017-12-16T14:37:03.948Z,100374.72
2017-12-16T14:39:30.854Z,100377.35
2017-12-16T14:41:57.752Z,100380.89
2017-12-16T14:44:24.664Z,100385.82
2017-12-16T14:46:51.578Z,100387.19
2017-12-16T14:49:18.424Z,100389.88
2017-12-16T14:51:45.238Z,100390.70
2017-12-16T14:54:12.804Z,100394.77
2017-12-16T14:56:39.746Z,100407.13
2017-12-16T14:59:08.380Z,100402.11
2017-12-16T15:01:37.771Z,100404.22
2017-12-16T15:04:07.381Z,100408.97
2017-12-16T15:06:34.267Z,100412.16
2017-12-16T15:09:01.847Z,100415.64
2017-12-16T15:11:28.656Z,100417.77
2017-12-16T15:13:55.494Z,100423.42
2017-12-16T15:16:23.324Z,100422.70
2017-12-16T15:18:50.137Z,100427.17
2017-12-16T15:21:16.933Z,100434.59
2017-12-16T15:23:43.800Z,100435.14
2017-12-16T15:26:10.566Z,100438.34
2017-12-16T15:28:37.520Z,100442.84
2017-12-16T15:31:04.366Z,100444.34
2017-12-16T15:33:31.394Z,100448.27
2017-12-16T15:35:58.998Z,100457.42
2017-12-16T15:38:26.818Z,100458.03
2017-12-16T15:40:54.035Z,100462.84
2017-12-16T15:52:26.529Z,100476.80
2017-12-16T15:54:55.050Z,100478.84
2017-12-16T16:11:05.986Z,100519.03
2017-12-16T16:13:33.284Z,100524.27
2017-12-16T16:16:00.176Z,100527.94
2017-12-16T16:18:27.081Z,100530.39
2017-12-16T16:20:54.134Z,100536.67
2017-12-16T16:23:21.598Z,100535.81
2017-12-16T16:25:48.458Z,100542.72
2017-12-16T16:28:16.556Z,100540.84
2017-12-16T16:30:43.406Z,100538.78
2017-12-16T16:33:10.265Z,100544.80
2017-12-16T16:35:37.171Z,100549.17
2017-12-16T16:38:04.026Z,100554.68
2017-12-16T16:40:31.298Z,100551.48
2017-12-16T16:42:58.213Z,100548.84
2017-12-16T16:45:25.680Z,100551.79
2017-12-16T16:47:52.640Z,100558.56
2017-12-16T16:50:20.829Z,100562.44
2017-12-16T16:52:47.718Z,100564.55
2017-12-16T16:55:15.653Z,100567.29
2017-12-16T16:57:42.542Z,100567.62
2017-12-16T17:00:09.600Z,100572.74
2017-12-16T17:02:37.228Z,100581.42
2017-12-16T17:05:06.694Z,100584.64
2017-12-16T17:07:33.645Z,100585.30
2017-12-16T17:10:02.618Z,100587.62
2017-12-16T17:12:30.425Z,100587.24
2017-12-16T17:14:57.316Z,100591.73
2017-12-16T17:17:24.240Z,100597.66
2017-12-16T17:19:52.820Z,100590.52
2017-12-16T17:22:19.693Z,100599.55
2017-12-16T17:24:46.610Z,100601.80
2017-12-16T17:27:15.477Z,100601.52
2017-12-16T17:29:44.363Z,100605.50
2017-12-16T17:32:13.910Z,100608.05
2017-12-16T17:34:41.206Z,100612.41
2017-12-16T17:37:08.054Z,100613.50
2017-12-16T17:39:34.899Z,100615.58
2017-12-16T17:42:03.276Z,100620.70
2017-12-16T17:44:30.963Z,100630.51
2017-12-16T17:46:58.595Z,100627.80
2017-12-16T17:49:25.485Z,100631.72
2017-12-16T17:51:53.165Z,100632.91
2017-12-16T17:54:21.243Z,100639.21
2017-12-16T17:56:50.651Z,100640.95
2017-12-16T17:59:17.532Z,100644.88
2017-12-16T18:01:45.527Z,100652.73
2017-12-16T18:04:13.496Z,100655.14
2017-12-16T18:06:40.851Z,100652.66
2017-12-16T18:09:07.778Z,100648.41
2017-12-16T18:11:35.437Z,100655.08
2017-12-16T18:14:03.074Z,100663.63
2017-12-16T18:16:30.423Z,100661.77
2017-12-16T18:18:57.325Z,100665.48
2017-12-16T18:21:24.702Z,100660.10
2017-12-16T18:23:52.432Z,100664.52
2017-12-16T18:26:19.313Z,100663.55
2017-12-16T18:28:46.344Z,100672.16
2017-12-16T18:31:13.936Z,100672.28
2017-12-16T18:33:42.338Z,100687.58
2017-12-16T18:36:09.204Z,100681.15
2017-12-16T18:38:36.030Z,100680.78
2017-12-16T18:41:05.359Z,100688.94
2017-12-16T18:43:32.638Z,100692.51
2017-12-16T18:46:01.033Z,100695.42
2017-12-16T18:48:27.949Z,100696.67
2017-12-16T18:50:54.821Z,100694.01
2017-12-16T18:53:21.698Z,100708.98
2017-12-16T18:55:49.342Z,100711.21
2017-12-16T18:58:19.452Z,100713.61
2017-12-16T19:00:47.371Z,100712.36
2017-12-16T19:03:14.434Z,100713.28
2017-12-16T19:05:41.368Z,100721.86
2017-12-16T19:08:09.977Z,100719.29
2017-12-16T19:10:39.749Z,100733.17
2017-12-16T19:13:06.635Z,100727.75
2017-12-16T19:15:33.563Z,100735.50
2017-12-16T19:18:01.351Z,100733.81
2017-12-16T19:20:28.553Z,100736.56
2017-12-16T19:22:56.768Z,100739.28
2017-12-16T19:25:23.656Z,100742.59
2017-12-16T19:27:50.538Z,100748.78
2017-12-16T19:30:17.427Z,100740.14
2017-12-16T19:32:44.769Z,100742.42
2017-12-16T19:35:11.970Z,100749.13
2017-12-16T19:37:40.520Z,100745.41
2017-12-16T19:40:07.482Z,100742.03
2017-12-16T19:42:36.986Z,100752.09
2017-12-16T19:45:03.956Z,100755.52
2017-12-16T19:47:30.902Z,100752.59
2017-12-16T19:49:57.960Z,100757.05
2017-12-16T19:52:24.794Z,100757.95
2017-12-16T19:54:51.677Z,100755.25
2017-12-16T19:57:19.341Z,100755.83
2017-12-16T19:59:47.131Z,100760.58
2017-12-16T20:02:14.077Z,100758.25
2017-12-16T20:04:41.961Z,100771.89
2017-12-16T20:07:09.815Z,100770.86
2017-12-16T20:09:37.656Z,100776.52
2017-12-16T20:12:06.164Z,100782.44
2017-12-16T20:14:34.078Z,100787.73
2017-12-16T20:17:01.106Z,100778.55
2017-12-16T20:19:28.205Z,100788.22
2017-12-16T20:21:55.124Z,100784.12
2017-12-16T20:24:22.086Z,100785.31
2017-12-16T20:26:49.763Z,100782.33
2017-12-16T20:29:17.067Z,100789.63
2017-12-16T20:31:44.727Z,100790.97
2017-12-16T20:34:11.954Z,100790.91
2017-12-16T20:36:39.384Z,100795.64
2017-12-16T20:39:07.677Z,100799.20
2017-12-16T20:41:35.456Z,100802.38
2017-12-16T20:44:03.952Z,100807.56
2017-12-16T20:46:31.910Z,100811.23
2017-12-16T20:49:00.584Z,100809.00
2017-12-16T20:51:29.406Z,100818.28
2017-12-16T20:53:58.712Z,100817.50
2017-12-16T20:56:26.689Z,100816.44
2017-12-16T20:58:53.982Z,100818.41
2017-12-16T21:01:21.033Z,100826.69
2017-12-16T21:03:48.587Z,100822.97
2017-12-16T21:06:17.251Z,100826.16
2017-12-16T21:08:45.799Z,100823.55
2017-12-16T21:11:13.731Z,100828.03
2017-12-16T21:13:41.998Z,100827.73
2017-12-16T21:16:09.767Z,100835.44
2017-12-16T21:18:38.775Z,100830.43
2017-12-16T21:21:07.165Z,100827.91
2017-12-16T21:23:34.112Z,100825.50
2017-12-16T21:26:05.365Z,100828.95
2017-12-16T21:28:32.602Z,100826.52
2017-12-16T21:31:00.687Z,100834.77
2017-12-16T21:33:29.085Z,100844.66
2017-12-16T21:35:58.557Z,100857.56
2017-12-16T21:38:27.601Z,100852.41
2017-12-16T21:40:56.551Z,100849.95
2017-12-16T21:43:24.517Z,100855.63
2017-12-16T21:45:53.469Z,100852.25
2017-12-16T21:48:21.480Z,100856.44
2017-12-16T21:50:49.137Z,100864.58
2017-12-16T21:53:16.964Z,100869.21
2017-12-16T21:55:44.580Z,100872.18
2017-12-16T21:58:14.318Z,100873.61
2017-12-16T22:00:43.283Z,100882.53
2017-12-16T22:03:10.969Z,100881.78
2017-12-16T22:05:38.275Z,100890.62
2017-12-16T22:08:05.728Z,100886.22
2017-12-16T22:10:37.836Z,100883.96
2017-12-16T22:13:06.633Z,100878.25
2017-12-16T22:15:34.636Z,100883.23
2017-12-16T22:18:02.607Z,100881.64
2017-12-16T22:20:36.497Z,100884.05
2017-12-16T22:23:05.719Z,100886.06
2017-12-16T22:25:33.829Z,100884.41
2017-12-16T22:28:02.106Z,100890.58
2017-12-16T22:30:29.647Z,100890.41
2017-12-16T22:32:56.670Z,100895.16
2017-12-16T22:35:24.449Z,100894.81
2017-12-16T22:37:51.352Z,100894.93
2017-12-16T22:40:19.530Z,100894.69
2017-12-16T22:42:47.016Z,100892.76
2017-12-16T22:45:14.413Z,100904.98
2017-12-16T22:47:41.385Z,100902.69
2017-12-16T22:50:08.231Z,100896.47
2017-12-16T22:52:36.498Z,100900.67
2017-12-16T22:55:03.387Z,100903.09
2017-12-16T22:57:31.013Z,100904.67
2017-12-16T22:59:58.548Z,100905.47
2017-12-16T23:02:25.418Z,100909.62
2017-12-16T23:04:52.262Z,100909.66
2017-12-16T23:07:19.166Z,100914.48
2017-12-16T23:09:46.051Z,100921.93
2017-12-16T23:12:12.926Z,100913.70
2017-12-16T23:14:39.883Z,100916.46
2017-12-16T23:17:06.754Z,100917.63
2017-12-16T23:19:33.626Z,100920.75
2017-12-16T23:22:00.493Z,100915.59
2017-12-16T23:24:28.097Z,100917.42
2017-12-16T23:26:55.001Z,100918.84
2017-12-16T23:29:21.908Z,100918.20
2017-12-16T23:31:50.925Z,100912.91
2017-12-16T23:34:19.945Z,100913.55
2017-12-16T23:36:47.761Z,100916.20
2017-12-16T23:39:15.569Z,100918.29
2017-12-16T23:41:44.445Z,100919.23
2017-12-16T23:44:12.987Z,100922.17
2017-12-16T23:46:43.049Z,100925.27
2017-12-16T23:49:09.984Z,100928.00
2017-12-16T23:51:36.899Z,100933.45
2017-12-16T23:54:04.675Z,100938.05
2017-12-16T23:56:32.349Z,100939.27
2017-12-16T23:58:59.340Z,100937.64
